createdAt,value
2023-01-28T00:00:26.618Z,100.00
2023-01-28T00:02:59.085Z,100.00
2023-01-28T00:05:31.594Z,100.00
2023-01-28T00:08:04.293Z,100.00
2023-01-28T00:10:40.194Z,100.00
2023-01-28T00:13:15.018Z,100.00
2023-01-28T00:15:47.585Z,100.00
2023-01-28T00:18:21.081Z,100.00
2023-01-28T00:21:04.375Z,100.00
2023-01-28T00:23:38.767Z,100.00
2023-01-28T00:26:16.178Z,100.00
2023-01-28T00:28:48.950Z,100.00
2023-01-28T00:31:23.913Z,100.00
2023-01-28T00:33:57.459Z,100.00
2023-01-28T00:36:29.981Z,100.00
2023-01-28T00:39:02.407Z,100.00
2023-01-28T00:41:34.868Z,100.00
2023-01-28T00:44:10.249Z,100.00
2023-01-28T00:46:42.741Z,100.00
2023-01-28T00:49:15.179Z,100.00
2023-01-28T00:51:49.071Z,100.00
2023-01-28T00:54:22.075Z,100.00
2023-01-28T00:56:54.525Z,100.00
2023-01-28T00:59:28.295Z,100.00
2023-01-28T01:02:02.450Z,100.00
2023-01-28T01:04:35.412Z,100.00
2023-01-28T01:07:08.173Z,100.00
2023-01-28T01:09:41.217Z,100.00
2023-01-28T01:12:13.790Z,100.00
2023-01-28T01:14:47.393Z,100.00
2023-01-28T01:17:22.509Z,100.00
2023-01-28T01:19:55.241Z,100.00
2023-01-28T01:22:28.164Z,100.00
2023-01-28T01:25:00.488Z,100.00
2023-01-28T01:27:33.802Z,100.00
2023-01-28T01:30:08.718Z,100.00
2023-01-28T01:32:41.782Z,100.00
2023-01-28T01:35:14.878Z,100.00
2023-01-28T01:37:48.100Z,100.00
2023-01-28T01:40:20.549Z,100.00
2023-01-28T01:42:52.994Z,100.00
2023-01-28T01:45:25.303Z,100.00
2023-01-28T01:48:14.027Z,100.00
2023-01-28T01:50:59.005Z,100.00
2023-01-28T01:53:31.561Z,100.00
2023-01-28T01:56:06.198Z,100.00
2023-01-28T01:58:40.651Z,100.00
2023-01-28T02:01:13.259Z,100.00
2023-01-28T02:04:08.237Z,100.00
2023-01-28T02:06:40.719Z,100.00
2023-01-28T02:09:35.533Z,100.00
2023-01-28T02:12:15.227Z,100.00
2023-01-28T02:14:54.532Z,100.00
2023-01-28T02:17:27.191Z,100.00
2023-01-28T02:20:09.650Z,100.00
2023-01-28T02:22:53.109Z,100.00
2023-01-28T02:26:20.470Z,100.00
2023-01-28T02:29:23.974Z,100.00
2023-01-28T02:32:07.256Z,100.00
2023-01-28T02:34:51.520Z,100.00
2023-01-28T02:37:31.230Z,100.00
2023-01-28T02:40:13.603Z,100.00
2023-01-28T02:42:46.189Z,100.00
2023-01-28T02:45:50.057Z,100.00
2023-01-28T02:48:24.005Z,100.00
2023-01-28T02:51:01.213Z,100.00
2023-01-28T02:53:43.734Z,100.00
2023-01-28T02:56:38.805Z,100.00
2023-01-28T02:59:37.493Z,100.00
2023-01-28T03:02:34.072Z,100.00
2023-01-28T03:05:21.079Z,100.00
2023-01-28T03:07:53.687Z,100.00
2023-01-28T03:10:27.501Z,100.00
2023-01-28T03:13:18.036Z,100.00
2023-01-28T03:16:08.834Z,100.00
2023-01-28T03:19:09.132Z,100.00
2023-01-28T03:22:02.227Z,100.00
2023-01-28T03:24:57.006Z,100.00
2023-01-28T03:28:11.599Z,100.00
2023-01-28T03:31:13.355Z,100.00
2023-01-28T03:34:05.613Z,100.00
2023-01-28T03:36:53.947Z,100.00
2023-01-28T03:39:31.624Z,100.00
2023-01-28T03:42:12.071Z,100.00
2023-01-28T03:45:03.384Z,100.00
2023-01-28T03:47:35.918Z,100.00
2023-01-28T03:50:11.322Z,100.00
2023-01-28T03:52:45.444Z,100.00
2023-01-28T03:55:31.775Z,100.00
2023-01-28T03:58:05.912Z,100.00
2023-01-28T04:00:41.147Z,100.00
2023-01-28T04:03:17.533Z,100.00
2023-01-28T04:06:03.676Z,100.00
2023-01-28T04:08:54.777Z,100.00
2023-01-28T04:11:31.862Z,100.00
2023-01-28T04:14:06.489Z,100.00
2023-01-28T04:16:43.794Z,100.00
2023-01-28T04:19:17.161Z,100.00
2023-01-28T04:21:50.118Z,100.00
2023-01-28T04:24:23.932Z,100.00
2023-01-28T04:26:56.682Z,100.00
2023-01-28T04:29:30.131Z,100.00
2023-01-28T04:32:04.295Z,100.00
2023-01-28T04:34:41.298Z,100.00
2023-01-28T04:37:15.772Z,100.00
2023-01-28T04:39:49.851Z,100.00
2023-01-28T04:42:24.222Z,100.00
2023-01-28T04:44:58.341Z,100.00
2023-01-28T04:47:47.859Z,100.00
2023-01-28T04:50:34.768Z,100.00
2023-01-28T04:53:11.918Z,100.00
2023-01-28T04:55:54.803Z,100.00
2023-01-28T04:58:27.768Z,100.00
2023-01-28T05:01:02.385Z,100.00
2023-01-28T05:03:36.544Z,100.00
2023-01-28T05:06:11.007Z,100.00
2023-01-28T05:08:50.788Z,100.00
2023-01-28T05:11:24.672Z,100.00
2023-01-28T05:13:59.242Z,100.00
2023-01-28T05:16:34.314Z,100.00
2023-01-28T05:19:07.765Z,100.00
2023-01-28T05:21:48.115Z,100.00
2023-01-28T05:24:21.780Z,100.00
2023-01-28T05:26:54.276Z,100.00
2023-01-28T05:29:26.592Z,100.00
2023-01-28T05:31:59.047Z,100.00
2023-01-28T05:34:31.390Z,100.00
2023-01-28T05:37:05.908Z,100.00
2023-01-28T05:39:40.411Z,100.00
2023-01-28T05:42:15.451Z,100.00
2023-01-28T05:44:49.481Z,100.00
2023-01-28T05:47:23.676Z,100.00
2023-01-28T05:49:57.306Z,100.00
2023-01-28T05:52:47.188Z,100.00
2023-01-28T05:55:24.965Z,100.00
2023-01-28T05:57:57.557Z,100.00
2023-01-28T06:00:31.873Z,100.00
2023-01-28T06:03:04.951Z,100.00
2023-01-28T06:05:38.437Z,100.00
2023-01-28T06:08:11.937Z,100.00
2023-01-28T06:10:44.812Z,100.00
2023-01-28T06:13:17.282Z,100.00
2023-01-28T06:16:04.918Z,100.00
2023-01-28T06:18:54.520Z,100.00
2023-01-28T06:21:29.650Z,100.00
2023-01-28T06:24:02.531Z,100.00
2023-01-28T06:26:35.438Z,100.00
2023-01-28T06:29:09.372Z,100.00
2023-01-28T06:31:42.074Z,100.00
2023-01-28T06:34:15.565Z,100.00
2023-01-28T06:36:48.252Z,100.00
2023-01-28T06:39:22.533Z,100.00
2023-01-28T06:41:55.002Z,100.00
2023-01-28T06:44:27.835Z,100.00
2023-01-28T06:47:00.581Z,100.00
2023-01-28T06:49:33.195Z,100.00
2023-01-28T06:52:05.884Z,100.00
2023-01-28T06:54:38.367Z,100.00
2023-01-28T06:57:10.972Z,100.00
2023-01-28T06:59:43.606Z,100.00
2023-01-28T07:02:15.965Z,100.00
2023-01-28T07:04:48.255Z,100.00
2023-01-28T07:07:20.643Z,100.00
2023-01-28T07:09:53.159Z,100.00
2023-01-28T07:12:25.948Z,100.00
2023-01-28T07:14:58.404Z,100.00
2023-01-28T07:17:31.083Z,100.00
2023-01-28T07:20:05.404Z,100.00
2023-01-28T07:22:39.941Z,100.00
2023-01-28T07:25:13.197Z,100.00
2023-01-28T07:27:53.930Z,100.00
2023-01-28T07:30:26.938Z,100.00
2023-01-28T07:33:20.467Z,100.00
2023-01-28T07:35:53.041Z,100.00
2023-01-28T07:38:25.589Z,100.00
2023-01-28T07:40:57.929Z,100.00
2023-01-28T07:43:32.086Z,100.00
2023-01-28T07:46:04.708Z,100.00
2023-01-28T07:48:37.156Z,100.00
2023-01-28T07:51:09.682Z,100.00
2023-01-28T07:53:42.057Z,100.00
2023-01-28T07:56:14.389Z,100.00
2023-01-28T07:58:46.965Z,100.00
2023-01-28T08:01:19.956Z,100.00
2023-01-28T08:03:52.915Z,100.00
2023-01-28T08:06:25.588Z,100.00
2023-01-28T08:08:58.366Z,99.88
2023-01-28T08:11:30.952Z,99.80
2023-01-28T08:14:03.622Z,98.79
2023-01-28T08:16:36.199Z,98.65
2023-01-28T08:19:08.940Z,98.57
2023-01-28T08:21:41.339Z,98.38
2023-01-28T08:24:13.951Z,98.25
2023-01-28T08:26:46.390Z,98.38
2023-01-28T08:29:18.957Z,98.21
2023-01-28T08:31:51.356Z,98.81
2023-01-28T08:34:23.967Z,98.66
2023-01-28T08:36:56.494Z,98.83
2023-01-28T08:39:28.875Z,98.51
2023-01-28T08:42:01.229Z,98.20
2023-01-28T08:44:33.939Z,98.01
2023-01-28T08:47:06.965Z,98.11
2023-01-28T08:49:39.555Z,98.45
2023-01-28T08:52:12.187Z,98.26
2023-01-28T08:54:44.508Z,97.93
2023-01-28T08:57:17.365Z,99.04
2023-01-28T08:59:49.901Z,99.49
2023-01-28T09:02:31.567Z,99.38
2023-01-28T09:04:57.694Z,99.57
2023-01-28T09:07:30.174Z,99.14
2023-01-28T09:10:02.900Z,99.03
2023-01-28T09:12:35.542Z,98.72
2023-01-28T09:15:10.257Z,98.60
2023-01-28T09:17:42.890Z,98.02
2023-01-28T09:20:16.322Z,97.74
2023-01-28T09:22:49.203Z,97.42
2023-01-28T09:25:22.057Z,97.25
2023-01-28T09:27:54.513Z,97.35
2023-01-28T09:30:27.063Z,97.10
2023-01-28T09:32:59.606Z,96.82
2023-01-28T09:35:32.024Z,97.22
2023-01-28T09:38:05.025Z,97.13
2023-01-28T09:40:45.636Z,97.47
2023-01-28T09:43:27.709Z,97.36
2023-01-28T09:46:05.992Z,97.46
2023-01-28T09:48:52.846Z,97.20
2023-01-28T09:51:41.632Z,97.15
2023-01-28T09:57:49.905Z,96.42
2023-01-28T10:00:30.112Z,96.01
2023-01-28T10:03:41.280Z,95.56
2023-01-28T10:06:49.034Z,95.29
2023-01-28T10:09:45.675Z,94.63
2023-01-28T10:12:52.958Z,95.09
2023-01-28T10:15:33.092Z,96.11
2023-01-28T10:18:17.487Z,95.52
2023-01-28T10:20:56.855Z,94.58
2023-01-28T10:23:42.844Z,94.01
2023-01-28T10:26:25.613Z,93.92
2023-01-28T10:29:01.787Z,93.28
2023-01-28T10:31:38.936Z,92.46
2023-01-28T10:34:12.535Z,91.99
2023-01-28T10:36:45.298Z,90.95
2023-01-28T10:39:21.420Z,90.85
2023-01-28T10:41:58.710Z,90.27
2023-01-28T10:44:39.951Z,90.59
2023-01-28T10:47:20.257Z,89.74
2023-01-28T10:49:55.501Z,88.76
2023-01-28T10:52:28.181Z,88.13
2023-01-28T10:55:05.732Z,88.29
2023-01-28T10:57:38.392Z,88.50
2023-01-28T11:00:24.193Z,87.00
2023-01-28T11:02:56.738Z,85.24
2023-01-28T11:05:30.875Z,84.12
2023-01-28T11:08:18.207Z,83.45
2023-01-28T11:10:50.667Z,82.33
2023-01-28T11:13:28.962Z,81.68
2023-01-28T11:16:15.870Z,81.26
2023-01-28T11:19:05.502Z,82.69
2023-01-28T11:21:38.818Z,82.45
2023-01-28T11:24:22.150Z,81.28
2023-01-28T11:26:56.635Z,78.09
2023-01-28T11:29:32.571Z,74.53
2023-01-28T11:32:04.923Z,71.40
2023-01-28T11:34:37.302Z,69.27
2023-01-28T11:37:16.818Z,66.90
2023-01-28T11:39:49.303Z,65.93
2023-01-28T11:42:23.154Z,64.92
2023-01-28T11:44:55.440Z,65.48
2023-01-28T11:47:38.559Z,65.75
2023-01-28T11:50:19.183Z,65.45
2023-01-28T11:53:22.164Z,63.79
2023-01-28T11:56:11.133Z,62.31
2023-01-28T11:59:16.829Z,60.56
2023-01-28T12:01:53.425Z,59.68
2023-01-28T12:04:51.454Z,60.25
2023-01-28T12:07:40.840Z,61.23
2023-01-28T12:10:23.626Z,62.28
2023-01-28T12:13:39.418Z,62.74
2023-01-28T12:16:25.953Z,63.57
2023-01-28T12:19:24.211Z,64.26
2023-01-28T12:22:07.732Z,64.98
2023-01-28T12:25:19.414Z,65.77
2023-01-28T12:28:05.441Z,66.64
2023-01-28T12:31:24.304Z,67.85
2023-01-28T12:34:37.975Z,69.15
2023-01-28T12:37:30.583Z,69.90
2023-01-28T12:40:19.737Z,71.07
2023-01-28T12:42:59.383Z,71.70
2023-01-28T12:45:42.354Z,72.46
2023-01-28T12:48:25.296Z,72.66
2023-01-28T12:51:27.170Z,72.73
2023-01-28T12:54:25.000Z,73.14
2023-01-28T12:56:57.527Z,73.52
2023-01-28T12:59:49.810Z,73.73
2023-01-28T13:02:33.157Z,74.13
2023-01-28T13:05:22.212Z,74.42
2023-01-28T13:08:13.416Z,74.80
2023-01-28T13:10:47.646Z,75.10
2023-01-28T16:23:09.408Z,85.82
2023-01-28T16:25:42.294Z,85.38
2023-01-28T16:28:20.294Z,85.46
2023-01-28T16:30:52.785Z,85.17
2023-01-28T16:33:25.954Z,84.89
2023-01-28T16:36:08.240Z,84.80
2023-01-28T16:38:34.320Z,84.72
2023-01-28T16:41:13.866Z,84.82
2023-01-28T16:43:46.404Z,84.81
2023-01-28T16:46:19.210Z,84.83
2023-01-28T16:48:52.370Z,84.81
2023-01-28T16:51:24.806Z,84.95
2023-01-28T16:53:58.045Z,84.98
2023-01-28T16:56:47.141Z,84.90
2023-01-28T16:59:05.440Z,85.06
2023-01-28T17:01:37.881Z,85.28
2023-01-28T17:04:12.568Z,85.48
2023-01-28T17:06:45.365Z,85.63
2023-01-28T17:09:18.432Z,85.50
2023-01-28T17:11:50.990Z,85.45
2023-01-28T17:14:24.293Z,85.24
2023-01-28T17:16:57.837Z,85.17
2023-01-28T17:19:31.448Z,84.96
2023-01-28T17:22:03.970Z,84.98
2023-01-28T17:24:36.820Z,84.75
2023-01-28T17:27:09.893Z,84.57
2023-01-28T17:29:42.371Z,84.13
2023-01-28T17:32:15.018Z,84.04
2023-01-28T17:34:49.501Z,83.69
2023-01-28T17:37:22.445Z,83.52
2023-01-28T17:39:54.961Z,83.42
2023-01-28T17:42:28.381Z,83.45
2023-01-28T17:45:02.658Z,83.20
2023-01-28T17:47:35.642Z,83.08
2023-01-28T17:50:08.470Z,83.16
2023-01-28T17:52:42.159Z,83.29
2023-01-28T17:55:15.974Z,83.54
2023-01-28T17:57:48.912Z,83.66
2023-01-28T18:00:23.287Z,83.81
2023-01-28T18:02:56.731Z,84.00
2023-01-28T18:05:29.143Z,84.19
2023-01-28T18:08:01.611Z,84.42
2023-01-28T18:10:34.212Z,84.50
2023-01-28T18:13:06.734Z,84.63
2023-01-28T18:15:40.423Z,84.90
2023-01-28T18:18:13.052Z,85.19
2023-01-28T18:20:45.654Z,85.57
2023-01-28T18:23:18.187Z,85.71
2023-01-28T18:25:51.327Z,86.06
2023-01-28T18:28:23.814Z,86.11
2023-01-28T18:30:56.787Z,86.55
2023-01-28T18:33:31.238Z,87.00
2023-01-28T18:36:06.549Z,87.28
2023-01-28T18:38:39.186Z,87.54
2023-01-28T18:41:11.618Z,87.76
2023-01-28T18:43:44.634Z,88.01
2023-01-28T18:46:19.110Z,88.21
2023-01-28T18:48:51.768Z,88.09
2023-01-28T18:51:31.201Z,88.35
2023-01-28T18:54:04.097Z,88.45
2023-01-28T18:56:36.728Z,88.44
2023-01-28T18:59:11.152Z,88.96
2023-01-28T19:01:44.049Z,88.67
2023-01-28T19:04:16.771Z,88.46
2023-01-28T19:06:49.451Z,88.30
2023-01-28T19:09:22.207Z,87.95
2023-01-28T19:11:54.710Z,88.06
2023-01-28T19:14:27.982Z,88.12
2023-01-28T19:17:00.548Z,88.05
2023-01-28T19:19:33.299Z,87.80
2023-01-28T19:22:05.833Z,88.04
2023-01-28T19:24:38.477Z,87.92
2023-01-28T19:27:10.963Z,87.64
2023-01-28T19:29:44.248Z,87.49
2023-01-28T19:32:16.859Z,87.28
2023-01-28T19:34:49.948Z,87.01
2023-01-28T19:37:23.651Z,87.08
2023-01-28T19:39:56.398Z,86.81
2023-01-28T19:42:28.675Z,86.75
2023-01-28T19:45:03.988Z,86.63
2023-01-28T19:47:35.918Z,86.31
2023-01-28T19:50:10.098Z,86.07
2023-01-28T19:52:43.479Z,85.94
2023-01-28T19:55:16.170Z,86.06
2023-01-28T19:57:51.008Z,85.93
2023-01-28T20:00:23.601Z,85.94
2023-01-28T20:02:55.949Z,86.04
2023-01-28T20:05:28.314Z,86.00
2023-01-28T20:08:00.936Z,85.80
2023-01-28T20:10:34.209Z,86.01
2023-01-28T20:13:08.126Z,86.23
2023-01-28T20:15:41.264Z,86.81
2023-01-28T20:18:13.596Z,87.13
2023-01-28T20:20:55.671Z,87.16
2023-01-28T20:23:28.555Z,87.65
2023-01-28T20:26:04.027Z,87.80
2023-01-28T20:28:36.784Z,88.29
2023-01-28T20:31:10.665Z,88.38
2023-01-28T20:33:43.017Z,88.38
2023-01-28T20:36:16.318Z,88.79
2023-01-28T20:38:50.358Z,89.35
2023-01-28T20:41:24.994Z,90.58
2023-01-28T20:43:57.301Z,90.88
2023-01-28T20:46:33.372Z,90.96
2023-01-28T20:49:10.259Z,90.83
2023-01-28T20:51:44.397Z,91.08
2023-01-28T20:54:18.459Z,91.31
2023-01-28T20:56:51.634Z,91.91
2023-01-28T20:59:24.307Z,92.13
2023-01-28T21:01:56.762Z,92.31
2023-01-28T21:04:29.827Z,92.61
2023-01-28T21:07:02.936Z,92.91
2023-01-28T21:09:36.399Z,93.23
2023-01-28T21:12:09.617Z,93.78
2023-01-28T21:14:42.643Z,94.10
2023-01-28T21:17:15.659Z,94.49
2023-01-28T21:19:48.626Z,95.24
2023-01-28T21:22:21.249Z,95.45
2023-01-28T21:24:54.216Z,95.46
2023-01-28T21:27:26.659Z,95.72
2023-01-28T21:29:59.106Z,96.10
2023-01-28T21:32:31.969Z,95.99
2023-01-28T21:35:04.668Z,96.10
2023-01-28T21:37:39.142Z,96.29
2023-01-28T21:40:14.343Z,96.52
2023-01-28T21:42:47.875Z,96.69
2023-01-28T21:45:20.597Z,96.68
2023-01-28T21:47:54.419Z,96.80
2023-01-28T21:50:27.430Z,96.99
2023-01-28T21:52:59.821Z,97.50
2023-01-28T21:55:32.244Z,97.62
2023-01-28T21:58:06.620Z,97.53
2023-01-28T22:00:38.532Z,97.43
